sensor_id;sensor_type;location;lat;lon;timestamp;P1;durP1;ratioP1;P2;durP2;ratioP2
61899;SDS011;47853;55.890;37.664;2023-02-04T00:00:08;6.65;;;5.60;;
61899;SDS011;47853;55.890;37.664;2023-02-04T00:02:36;4.93;;;4.05;;
61899;SDS011;47853;55.890;37.664;2023-02-04T00:05:02;3.95;;;3.55;;
61899;SDS011;47853;55.890;37.664;2023-02-04T00:07:27;4.80;;;4.03;;
61899;SDS011;47853;55.890;37.664;2023-02-04T00:09:53;4.15;;;3.60;;
61899;SDS011;47853;55.890;37.664;2023-02-04T00:12:18;7.20;;;4.38;;
61899;SDS011;47853;55.890;37.664;2023-02-04T00:14:43;7.05;;;5.32;;
61899;SDS011;47853;55.890;37.664;2023-02-04T00:17:09;8.80;;;5.18;;
61899;SDS011;47853;55.890;37.664;2023-02-04T00:19:34;6.18;;;4.68;;
61899;SDS011;47853;55.890;37.664;2023-02-04T00:21:59;7.50;;;5.25;;
61899;SDS011;47853;55.890;37.664;2023-02-04T00:24:25;5.95;;;4.10;;
61899;SDS011;47853;55.890;37.664;2023-02-04T00:26:50;7.32;;;5.50;;
61899;SDS011;47853;55.890;37.664;2023-02-04T00:29:15;4.40;;;3.90;;
61899;SDS011;47853;55.890;37.664;2023-02-04T00:31:41;4.65;;;4.13;;
61899;SDS011;47853;55.890;37.664;2023-02-04T00:34:06;5.78;;;4.00;;
61899;SDS011;47853;55.890;37.664;2023-02-04T00:36:31;4.30;;;3.90;;
61899;SDS011;47853;55.890;37.664;2023-02-04T00:38:57;5.22;;;4.22;;
61899;SDS011;47853;55.890;37.664;2023-02-04T00:41:22;4.97;;;3.75;;
61899;SDS011;47853;55.890;37.664;2023-02-04T00:43:47;3.42;;;3.08;;
61899;SDS011;47853;55.890;37.664;2023-02-04T00:46:12;6.30;;;3.72;;
61899;SDS011;47853;55.890;37.664;2023-02-04T00:48:38;6.00;;;4.00;;
61899;SDS011;47853;55.890;37.664;2023-02-04T00:51:09;5.10;;;3.95;;
61899;SDS011;47853;55.890;37.664;2023-02-04T00:53:34;5.03;;;4.00;;
61899;SDS011;47853;55.890;37.664;2023-02-04T00:56:00;5.40;;;4.70;;
61899;SDS011;47853;55.890;37.664;2023-02-04T00:58:25;6.00;;;4.85;;
61899;SDS011;47853;55.890;37.664;2023-02-04T01:00:50;4.53;;;3.80;;
61899;SDS011;47853;55.890;37.664;2023-02-04T01:03:16;4.45;;;3.80;;
61899;SDS011;47853;55.890;37.664;2023-02-04T01:05:41;5.20;;;4.35;;
61899;SDS011;47853;55.890;37.664;2023-02-04T01:08:07;5.22;;;4.20;;
61899;SDS011;47853;55.890;37.664;2023-02-04T01:10:32;5.07;;;4.57;;
61899;SDS011;47853;55.890;37.664;2023-02-04T01:12:57;5.85;;;4.20;;
61899;SDS011;47853;55.890;37.664;2023-02-04T01:15:23;6.60;;;5.10;;
61899;SDS011;47853;55.890;37.664;2023-02-04T01:17:48;4.82;;;4.32;;
61899;SDS011;47853;55.890;37.664;2023-02-04T01:20:14;5.60;;;4.95;;
61899;SDS011;47853;55.890;37.664;2023-02-04T01:22:39;7.05;;;5.15;;
61899;SDS011;47853;55.890;37.664;2023-02-04T01:25:05;5.72;;;4.47;;
61899;SDS011;47853;55.890;37.664;2023-02-04T01:27:31;5.22;;;4.65;;
61899;SDS011;47853;55.890;37.664;2023-02-04T01:29:56;5.95;;;4.90;;
61899;SDS011;47853;55.890;37.664;2023-02-04T01:32:21;6.95;;;5.18;;
61899;SDS011;47853;55.890;37.664;2023-02-04T01:34:47;7.82;;;5.22;;
61899;SDS011;47853;55.890;37.664;2023-02-04T01:37:12;6.70;;;5.03;;
61899;SDS011;47853;55.890;37.664;2023-02-04T01:39:37;6.07;;;5.47;;
61899;SDS011;47853;55.890;37.664;2023-02-04T01:42:03;5.82;;;5.03;;
61899;SDS011;47853;55.890;37.664;2023-02-04T01:44:28;6.72;;;5.38;;
61899;SDS011;47853;55.890;37.664;2023-02-04T01:46:54;6.15;;;5.20;;
61899;SDS011;47853;55.890;37.664;2023-02-04T01:49:19;7.15;;;5.25;;
61899;SDS011;47853;55.890;37.664;2023-02-04T01:51:45;5.72;;;4.70;;
61899;SDS011;47853;55.890;37.664;2023-02-04T01:54:11;7.68;;;5.07;;
61899;SDS011;47853;55.890;37.664;2023-02-04T01:56:38;6.13;;;5.53;;
61899;SDS011;47853;55.890;37.664;2023-02-04T01:59:13;7.55;;;5.82;;
61899;SDS011;47853;55.890;37.664;2023-02-04T02:01:47;6.30;;;4.63;;
61899;SDS011;47853;55.890;37.664;2023-02-04T02:04:16;5.93;;;4.85;;
61899;SDS011;47853;55.890;37.664;2023-02-04T02:06:45;7.28;;;5.15;;
61899;SDS011;47853;55.890;37.664;2023-02-04T02:09:13;6.47;;;5.03;;
61899;SDS011;47853;55.890;37.664;2023-02-04T02:11:38;6.25;;;5.10;;
61899;SDS011;47853;55.890;37.664;2023-02-04T02:14:04;8.75;;;4.88;;
61899;SDS011;47853;55.890;37.664;2023-02-04T02:16:29;6.22;;;4.80;;
61899;SDS011;47853;55.890;37.664;2023-02-04T02:18:55;7.63;;;5.25;;
61899;SDS011;47853;55.890;37.664;2023-02-04T02:21:23;6.03;;;4.80;;
61899;SDS011;47853;55.890;37.664;2023-02-04T02:23:58;5.97;;;5.07;;
61899;SDS011;47853;55.890;37.664;2023-02-04T02:26:23;6.53;;;5.13;;
61899;SDS011;47853;55.890;37.664;2023-02-04T02:28:49;6.03;;;4.78;;
61899;SDS011;47853;55.890;37.664;2023-02-04T02:31:15;5.55;;;4.93;;
61899;SDS011;47853;55.890;37.664;2023-02-04T02:33:43;8.02;;;5.40;;
61899;SDS011;47853;55.890;37.664;2023-02-04T02:36:10;5.63;;;4.57;;
61899;SDS011;47853;55.890;37.664;2023-02-04T02:38:35;6.32;;;5.00;;
61899;SDS011;47853;55.890;37.664;2023-02-04T02:41:01;5.20;;;4.68;;
61899;SDS011;47853;55.890;37.664;2023-02-04T02:43:27;7.32;;;4.63;;
61899;SDS011;47853;55.890;37.664;2023-02-04T02:45:53;6.53;;;5.47;;
61899;SDS011;47853;55.890;37.664;2023-02-04T02:48:21;9.05;;;5.57;;
61899;SDS011;47853;55.890;37.664;2023-02-04T02:50:47;8.30;;;5.85;;
61899;SDS011;47853;55.890;37.664;2023-02-04T02:53:15;7.95;;;5.60;;
61899;SDS011;47853;55.890;37.664;2023-02-04T02:55:43;10.13;;;5.50;;
61899;SDS011;47853;55.890;37.664;2023-02-04T03:00:54;8.90;;;6.15;;
61899;SDS011;47853;55.890;37.664;2023-02-04T03:03:23;7.70;;;6.40;;
61899;SDS011;47853;55.890;37.664;2023-02-04T03:05:56;7.97;;;5.65;;
61899;SDS011;47853;55.890;37.664;2023-02-04T03:08:26;6.13;;;5.35;;
61899;SDS011;47853;55.890;37.664;2023-02-04T03:10:51;6.60;;;5.70;;
61899;SDS011;47853;55.890;37.664;2023-02-04T03:13:17;6.18;;;5.40;;
61899;SDS011;47853;55.890;37.664;2023-02-04T03:15:44;6.30;;;5.70;;
61899;SDS011;47853;55.890;37.664;2023-02-04T03:18:12;8.40;;;6.55;;
61899;SDS011;47853;55.890;37.664;2023-02-04T03:20:43;9.70;;;5.88;;
61899;SDS011;47853;55.890;37.664;2023-02-04T03:23:08;9.13;;;6.20;;
61899;SDS011;47853;55.890;37.664;2023-02-04T03:25:34;7.30;;;5.80;;
61899;SDS011;47853;55.890;37.664;2023-02-04T03:28:00;8.80;;;6.47;;
61899;SDS011;47853;55.890;37.664;2023-02-04T03:30:26;7.30;;;6.13;;
61899;SDS011;47853;55.890;37.664;2023-02-04T03:32:52;11.75;;;6.70;;
61899;SDS011;47853;55.890;37.664;2023-02-04T03:35:18;8.82;;;6.07;;
61899;SDS011;47853;55.890;37.664;2023-02-04T03:37:44;8.63;;;6.25;;
61899;SDS011;47853;55.890;37.664;2023-02-04T03:40:09;7.57;;;5.70;;
61899;SDS011;47853;55.890;37.664;2023-02-04T03:42:35;9.48;;;6.70;;
61899;SDS011;47853;55.890;37.664;2023-02-04T03:45:01;7.82;;;6.32;;
61899;SDS011;47853;55.890;37.664;2023-02-04T03:47:26;7.68;;;5.97;;
61899;SDS011;47853;55.890;37.664;2023-02-04T03:49:52;8.75;;;6.35;;
61899;SDS011;47853;55.890;37.664;2023-02-04T03:52:17;9.15;;;6.00;;
61899;SDS011;47853;55.890;37.664;2023-02-04T03:54:42;7.13;;;5.75;;
61899;SDS011;47853;55.890;37.664;2023-02-04T03:57:08;6.72;;;5.70;;
61899;SDS011;47853;55.890;37.664;2023-02-04T03:59:33;7.85;;;6.43;;
61899;SDS011;47853;55.890;37.664;2023-02-04T04:01:58;9.95;;;6.60;;
61899;SDS011;47853;55.890;37.664;2023-02-04T04:04:27;9.20;;;7.20;;
61899;SDS011;47853;55.890;37.664;2023-02-04T04:06:52;9.55;;;6.63;;
61899;SDS011;47853;55.890;37.664;2023-02-04T04:09:18;12.30;;;6.90;;
61899;SDS011;47853;55.890;37.664;2023-02-04T04:11:43;14.77;;;8.27;;
61899;SDS011;47853;55.890;37.664;2023-02-04T04:14:08;12.10;;;7.75;;
61899;SDS011;47853;55.890;37.664;2023-02-04T04:16:34;15.00;;;7.45;;
61899;SDS011;47853;55.890;37.664;2023-02-04T04:18:59;16.60;;;9.75;;
61899;SDS011;47853;55.890;37.664;2023-02-04T04:21:24;24.02;;;11.35;;
61899;SDS011;47853;55.890;37.664;2023-02-04T04:23:50;28.55;;;13.13;;
61899;SDS011;47853;55.890;37.664;2023-02-04T04:26:15;18.88;;;10.98;;
61899;SDS011;47853;55.890;37.664;2023-02-04T04:28:40;19.08;;;11.50;;
61899;SDS011;47853;55.890;37.664;2023-02-04T04:31:06;17.30;;;10.80;;
61899;SDS011;47853;55.890;37.664;2023-02-04T04:33:31;16.95;;;10.07;;
61899;SDS011;47853;55.890;37.664;2023-02-04T04:35:56;17.63;;;10.13;;
61899;SDS011;47853;55.890;37.664;2023-02-04T04:38:22;14.63;;;9.48;;
61899;SDS011;47853;55.890;37.664;2023-02-04T04:40:47;14.95;;;9.43;;
61899;SDS011;47853;55.890;37.664;2023-02-04T04:43:13;14.57;;;9.30;;
61899;SDS011;47853;55.890;37.664;2023-02-04T04:45:38;13.25;;;9.25;;
61899;SDS011;47853;55.890;37.664;2023-02-04T04:48:03;12.50;;;7.93;;
61899;SDS011;47853;55.890;37.664;2023-02-04T04:50:29;12.95;;;7.95;;
61899;SDS011;47853;55.890;37.664;2023-02-04T04:52:54;14.65;;;9.60;;
61899;SDS011;47853;55.890;37.664;2023-02-04T04:55:19;10.93;;;7.85;;
61899;SDS011;47853;55.890;37.664;2023-02-04T04:57:45;10.48;;;7.82;;
61899;SDS011;47853;55.890;37.664;2023-02-04T05:00:13;10.23;;;7.55;;
61899;SDS011;47853;55.890;37.664;2023-02-04T05:02:41;9.75;;;7.03;;
61899;SDS011;47853;55.890;37.664;2023-02-04T05:05:06;8.57;;;6.50;;
61899;SDS011;47853;55.890;37.664;2023-02-04T05:07:32;9.02;;;6.65;;
61899;SDS011;47853;55.890;37.664;2023-02-04T05:09:57;10.85;;;7.93;;
61899;SDS011;47853;55.890;37.664;2023-02-04T05:12:22;9.30;;;7.07;;
61899;SDS011;47853;55.890;37.664;2023-02-04T05:14:48;8.55;;;6.82;;
61899;SDS011;47853;55.890;37.664;2023-02-04T05:17:14;9.88;;;7.20;;
61899;SDS011;47853;55.890;37.664;2023-02-04T05:19:40;8.50;;;6.63;;
61899;SDS011;47853;55.890;37.664;2023-02-04T05:22:05;12.68;;;7.25;;
61899;SDS011;47853;55.890;37.664;2023-02-04T05:24:30;9.35;;;7.53;;
61899;SDS011;47853;55.890;37.664;2023-02-04T05:26:56;16.17;;;8.02;;
61899;SDS011;47853;55.890;37.664;2023-02-04T05:29:21;9.00;;;6.90;;
61899;SDS011;47853;55.890;37.664;2023-02-04T05:31:46;8.85;;;6.70;;
61899;SDS011;47853;55.890;37.664;2023-02-04T05:34:12;12.60;;;7.05;;
61899;SDS011;47853;55.890;37.664;2023-02-04T05:36:37;10.70;;;7.20;;
61899;SDS011;47853;55.890;37.664;2023-02-04T05:39:02;12.60;;;7.35;;
61899;SDS011;47853;55.890;37.664;2023-02-04T05:41:28;11.55;;;7.72;;
61899;SDS011;47853;55.890;37.664;2023-02-04T05:43:53;14.27;;;9.35;;
61899;SDS011;47853;55.890;37.664;2023-02-04T05:46:21;14.80;;;9.93;;
61899;SDS011;47853;55.890;37.664;2023-02-04T05:48:46;17.27;;;11.18;;
61899;SDS011;47853;55.890;37.664;2023-02-04T05:51:12;16.80;;;10.82;;
61899;SDS011;47853;55.890;37.664;2023-02-04T05:53:37;16.70;;;10.90;;
61899;SDS011;47853;55.890;37.664;2023-02-04T05:56:02;16.73;;;10.88;;
61899;SDS011;47853;55.890;37.664;2023-02-04T05:58:28;13.38;;;9.80;;
61899;SDS011;47853;55.890;37.664;2023-02-04T06:00:53;15.38;;;10.05;;
61899;SDS011;47853;55.890;37.664;2023-02-04T06:03:19;13.48;;;8.85;;
61899;SDS011;47853;55.890;37.664;2023-02-04T06:05:44;13.57;;;8.82;;
61899;SDS011;47853;55.890;37.664;2023-02-04T06:08:09;13.57;;;8.35;;
61899;SDS011;47853;55.890;37.664;2023-02-04T06:10:35;13.63;;;8.90;;
61899;SDS011;47853;55.890;37.664;2023-02-04T06:13:00;15.05;;;9.73;;
61899;SDS011;47853;55.890;37.664;2023-02-04T06:15:25;14.35;;;9.88;;
61899;SDS011;47853;55.890;37.664;2023-02-04T06:17:51;16.10;;;9.40;;
61899;SDS011;47853;55.890;37.664;2023-02-04T06:20:16;16.25;;;9.90;;
61899;SDS011;47853;55.890;37.664;2023-02-04T06:22:41;14.68;;;9.38;;
61899;SDS011;47853;55.890;37.664;2023-02-04T06:25:07;11.52;;;8.10;;
61899;SDS011;47853;55.890;37.664;2023-02-04T06:27:32;10.43;;;8.02;;
61899;SDS011;47853;55.890;37.664;2023-02-04T06:29:58;10.25;;;7.90;;
61899;SDS011;47853;55.890;37.664;2023-02-04T06:32:23;12.15;;;9.02;;
61899;SDS011;47853;55.890;37.664;2023-02-04T06:34:48;13.52;;;8.95;;
61899;SDS011;47853;55.890;37.664;2023-02-04T06:37:14;15.00;;;9.02;;
61899;SDS011;47853;55.890;37.664;2023-02-04T06:39:39;13.02;;;8.90;;
61899;SDS011;47853;55.890;37.664;2023-02-04T06:42:05;15.23;;;9.75;;
61899;SDS011;47853;55.890;37.664;2023-02-04T06:44:30;12.70;;;9.13;;
61899;SDS011;47853;55.890;37.664;2023-02-04T06:46:55;13.30;;;8.95;;
61899;SDS011;47853;55.890;37.664;2023-02-04T06:49:21;18.88;;;10.50;;
61899;SDS011;47853;55.890;37.664;2023-02-04T06:51:46;16.13;;;10.57;;
61899;SDS011;47853;55.890;37.664;2023-02-04T06:54:12;14.55;;;9.88;;
61899;SDS011;47853;55.890;37.664;2023-02-04T06:56:37;15.63;;;11.23;;
61899;SDS011;47853;55.890;37.664;2023-02-04T06:59:02;14.68;;;10.32;;
61899;SDS011;47853;55.890;37.664;2023-02-04T07:01:28;20.02;;;12.30;;
61899;SDS011;47853;55.890;37.664;2023-02-04T07:03:53;21.42;;;12.85;;
61899;SDS011;47853;55.890;37.664;2023-02-04T07:06:18;23.02;;;13.32;;
61899;SDS011;47853;55.890;37.664;2023-02-04T07:08:43;19.50;;;11.95;;
61899;SDS011;47853;55.890;37.664;2023-02-04T07:11:09;18.45;;;12.18;;
61899;SDS011;47853;55.890;37.664;2023-02-04T07:13:34;16.13;;;11.77;;
61899;SDS011;47853;55.890;37.664;2023-02-04T07:15:59;17.98;;;12.63;;
61899;SDS011;47853;55.890;37.664;2023-02-04T07:18:25;21.73;;;12.50;;
61899;SDS011;47853;55.890;37.664;2023-02-04T07:20:50;15.27;;;10.98;;
61899;SDS011;47853;55.890;37.664;2023-02-04T07:23:15;21.05;;;14.80;;
61899;SDS011;47853;55.890;37.664;2023-02-04T07:25:41;43.92;;;27.13;;
61899;SDS011;47853;55.890;37.664;2023-02-04T07:28:06;18.08;;;11.52;;
61899;SDS011;47853;55.890;37.664;2023-02-04T07:30:31;19.10;;;12.73;;
61899;SDS011;47853;55.890;37.664;2023-02-04T07:32:57;17.92;;;11.50;;
61899;SDS011;47853;55.890;37.664;2023-02-04T07:35:23;16.50;;;12.10;;
61899;SDS011;47853;55.890;37.664;2023-02-04T07:37:48;17.38;;;11.10;;
61899;SDS011;47853;55.890;37.664;2023-02-04T07:40:14;17.88;;;12.65;;
61899;SDS011;47853;55.890;37.664;2023-02-04T07:42:40;20.27;;;12.30;;
61899;SDS011;47853;55.890;37.664;2023-02-04T07:45:05;22.70;;;12.77;;
61899;SDS011;47853;55.890;37.664;2023-02-04T07:47:31;19.67;;;12.18;;
61899;SDS011;47853;55.890;37.664;2023-02-04T07:49:57;17.67;;;11.95;;
61899;SDS011;47853;55.890;37.664;2023-02-04T07:52:22;16.83;;;10.82;;
61899;SDS011;47853;55.890;37.664;2023-02-04T07:54:48;15.13;;;11.05;;
61899;SDS011;47853;55.890;37.664;2023-02-04T07:57:13;16.42;;;11.73;;
61899;SDS011;47853;55.890;37.664;2023-02-04T07:59:39;19.65;;;13.55;;
61899;SDS011;47853;55.890;37.664;2023-02-04T08:02:04;20.48;;;13.43;;
61899;SDS011;47853;55.890;37.664;2023-02-04T08:04:30;26.48;;;16.88;;
61899;SDS011;47853;55.890;37.664;2023-02-04T08:06:55;18.27;;;11.70;;
61899;SDS011;47853;55.890;37.664;2023-02-04T08:09:20;18.15;;;13.25;;
61899;SDS011;47853;55.890;37.664;2023-02-04T08:11:46;20.20;;;13.82;;
61899;SDS011;47853;55.890;37.664;2023-02-04T08:14:11;21.23;;;14.45;;
61899;SDS011;47853;55.890;37.664;2023-02-04T08:16:37;21.23;;;14.15;;
61899;SDS011;47853;55.890;37.664;2023-02-04T08:19:02;18.75;;;12.57;;
61899;SDS011;47853;55.890;37.664;2023-02-04T08:21:28;18.23;;;13.23;;
61899;SDS011;47853;55.890;37.664;2023-02-04T08:23:53;18.70;;;13.20;;
61899;SDS011;47853;55.890;37.664;2023-02-04T08:26:19;25.25;;;14.82;;
61899;SDS011;47853;55.890;37.664;2023-02-04T08:28:44;22.35;;;14.52;;
61899;SDS011;47853;55.890;37.664;2023-02-04T08:31:09;20.98;;;13.73;;
61899;SDS011;47853;55.890;37.664;2023-02-04T08:33:35;22.52;;;15.07;;
61899;SDS011;47853;55.890;37.664;2023-02-04T08:36:00;22.90;;;14.98;;
61899;SDS011;47853;55.890;37.664;2023-02-04T08:38:25;26.20;;;16.17;;
61899;SDS011;47853;55.890;37.664;2023-02-04T08:40:51;20.75;;;15.77;;
61899;SDS011;47853;55.890;37.664;2023-02-04T08:43:16;30.65;;;18.20;;
61899;SDS011;47853;55.890;37.664;2023-02-04T08:45:41;31.30;;;19.85;;
61899;SDS011;47853;55.890;37.664;2023-02-04T08:48:07;45.80;;;26.30;;
61899;SDS011;47853;55.890;37.664;2023-02-04T08:50:32;26.02;;;16.88;;
61899;SDS011;47853;55.890;37.664;2023-02-04T08:52:57;27.55;;;17.88;;
61899;SDS011;47853;55.890;37.664;2023-02-04T08:55:23;32.63;;;18.42;;
61899;SDS011;47853;55.890;37.664;2023-02-04T08:57:48;37.67;;;20.75;;
61899;SDS011;47853;55.890;37.664;2023-02-04T09:00:13;30.85;;;19.23;;
61899;SDS011;47853;55.890;37.664;2023-02-04T09:02:39;32.15;;;19.02;;
61899;SDS011;47853;55.890;37.664;2023-02-04T09:05:04;27.13;;;17.45;;
61899;SDS011;47853;55.890;37.664;2023-02-04T09:07:30;31.38;;;17.80;;
61899;SDS011;47853;55.890;37.664;2023-02-04T09:09:56;31.40;;;17.10;;
61899;SDS011;47853;55.890;37.664;2023-02-04T09:12:21;41.95;;;27.42;;
61899;SDS011;47853;55.890;37.664;2023-02-04T09:14:46;29.95;;;19.05;;
61899;SDS011;47853;55.890;37.664;2023-02-04T09:17:12;28.23;;;18.05;;
61899;SDS011;47853;55.890;37.664;2023-02-04T09:19:37;28.58;;;18.63;;
61899;SDS011;47853;55.890;37.664;2023-02-04T09:22:02;26.35;;;17.45;;
61899;SDS011;47853;55.890;37.664;2023-02-04T09:24:28;28.15;;;18.05;;
61899;SDS011;47853;55.890;37.664;2023-02-04T09:26:53;32.60;;;18.70;;
61899;SDS011;47853;55.890;37.664;2023-02-04T09:29:18;29.35;;;18.80;;
61899;SDS011;47853;55.890;37.664;2023-02-04T09:31:44;34.67;;;22.17;;
61899;SDS011;47853;55.890;37.664;2023-02-04T09:34:09;33.05;;;22.20;;
61899;SDS011;47853;55.890;37.664;2023-02-04T09:36:34;29.85;;;19.42;;
61899;SDS011;47853;55.890;37.664;2023-02-04T09:39:00;37.28;;;20.63;;
61899;SDS011;47853;55.890;37.664;2023-02-04T09:41:25;29.70;;;19.85;;
61899;SDS011;47853;55.890;37.664;2023-02-04T09:43:50;28.50;;;19.45;;
61899;SDS011;47853;55.890;37.664;2023-02-04T09:46:20;33.38;;;21.00;;
61899;SDS011;47853;55.890;37.664;2023-02-04T09:48:47;35.00;;;23.13;;
61899;SDS011;47853;55.890;37.664;2023-02-04T09:51:17;37.55;;;25.40;;
61899;SDS011;47853;55.890;37.664;2023-02-04T09:53:45;42.92;;;23.95;;
61899;SDS011;47853;55.890;37.664;2023-02-04T09:56:11;41.80;;;22.08;;
61899;SDS011;47853;55.890;37.664;2023-02-04T09:58:37;33.88;;;21.33;;
61899;SDS011;47853;55.890;37.664;2023-02-04T10:01:11;31.98;;;21.20;;
61899;SDS011;47853;55.890;37.664;2023-02-04T10:03:41;33.03;;;20.92;;
61899;SDS011;47853;55.890;37.664;2023-02-04T10:06:09;34.58;;;21.25;;
61899;SDS011;47853;55.890;37.664;2023-02-04T10:08:34;34.00;;;21.65;;
61899;SDS011;47853;55.890;37.664;2023-02-04T10:11:00;37.50;;;23.15;;
61899;SDS011;47853;55.890;37.664;2023-02-04T10:13:32;32.25;;;21.92;;
61899;SDS011;47853;55.890;37.664;2023-02-04T10:16:00;40.40;;;23.33;;
61899;SDS011;47853;55.890;37.664;2023-02-04T10:18:29;32.55;;;21.05;;
61899;SDS011;47853;55.890;37.664;2023-02-04T10:21:19;33.70;;;21.10;;
61899;SDS011;47853;55.890;37.664;2023-02-04T10:23:53;36.65;;;22.52;;
61899;SDS011;47853;55.890;37.664;2023-02-04T10:26:25;31.92;;;19.75;;
61899;SDS011;47853;55.890;37.664;2023-02-04T10:28:59;31.38;;;20.10;;
61899;SDS011;47853;55.890;37.664;2023-02-04T10:34:09;37.15;;;21.38;;
61899;SDS011;47853;55.890;37.664;2023-02-04T10:36:35;33.58;;;20.35;;
61899;SDS011;47853;55.890;37.664;2023-02-04T10:41:53;43.35;;;22.40;;
61899;SDS011;47853;55.890;37.664;2023-02-04T10:44:28;39.25;;;22.08;;
61899;SDS011;47853;55.890;37.664;2023-02-04T10:47:05;46.72;;;23.33;;
61899;SDS011;47853;55.890;37.664;2023-02-04T10:49:50;29.98;;;18.80;;
61899;SDS011;47853;55.890;37.664;2023-02-04T10:56:13;39.20;;;21.88;;
61899;SDS011;47853;55.890;37.664;2023-02-04T10:58:27;32.78;;;20.48;;
61899;SDS011;47853;55.890;37.664;2023-02-04T11:01:42;34.53;;;19.85;;
61899;SDS011;47853;55.890;37.664;2023-02-04T11:04:19;31.90;;;18.55;;
61899;SDS011;47853;55.890;37.664;2023-02-04T11:06:47;33.22;;;19.85;;
61899;SDS011;47853;55.890;37.664;2023-02-04T11:09:14;32.70;;;18.10;;
61899;SDS011;47853;55.890;37.664;2023-02-04T11:11:48;35.00;;;21.95;;
61899;SDS011;47853;55.890;37.664;2023-02-04T11:14:25;39.58;;;22.83;;
61899;SDS011;47853;55.890;37.664;2023-02-04T11:16:53;33.03;;;19.77;;
61899;SDS011;47853;55.890;37.664;2023-02-04T11:19:36;40.72;;;18.77;;
61899;SDS011;47853;55.890;37.664;2023-02-04T11:24:48;35.75;;;19.45;;
61899;SDS011;47853;55.890;37.664;2023-02-04T11:27:18;30.50;;;18.55;;
61899;SDS011;47853;55.890;37.664;2023-02-04T11:29:45;32.15;;;17.98;;
61899;SDS011;47853;55.890;37.664;2023-02-04T11:32:25;33.63;;;19.80;;
61899;SDS011;47853;55.890;37.664;2023-02-04T11:37:38;43.33;;;25.73;;
61899;SDS011;47853;55.890;37.664;2023-02-04T11:43:12;39.20;;;21.85;;
61899;SDS011;47853;55.890;37.664;2023-02-04T11:45:39;34.55;;;21.23;;
61899;SDS011;47853;55.890;37.664;2023-02-04T11:48:12;30.25;;;18.55;;
61899;SDS011;47853;55.890;37.664;2023-02-04T11:50:42;31.42;;;19.42;;
61899;SDS011;47853;55.890;37.664;2023-02-04T11:53:32;26.38;;;17.15;;
61899;SDS011;47853;55.890;37.664;2023-02-04T11:55:58;30.15;;;17.50;;
61899;SDS011;47853;55.890;37.664;2023-02-04T11:58:24;28.05;;;17.08;;
61899;SDS011;47853;55.890;37.664;2023-02-04T12:00:49;35.97;;;17.30;;
61899;SDS011;47853;55.890;37.664;2023-02-04T12:03:33;31.33;;;19.92;;
61899;SDS011;47853;55.890;37.664;2023-02-04T12:06:18;31.33;;;18.63;;
61899;SDS011;47853;55.890;37.664;2023-02-04T12:08:45;35.75;;;19.02;;
61899;SDS011;47853;55.890;37.664;2023-02-04T12:11:24;32.90;;;20.00;;
61899;SDS011;47853;55.890;37.664;2023-02-04T12:13:53;33.08;;;18.90;;
61899;SDS011;47853;55.890;37.664;2023-02-04T12:16:20;39.83;;;22.15;;
61899;SDS011;47853;55.890;37.664;2023-02-04T12:18:45;37.97;;;21.88;;
61899;SDS011;47853;55.890;37.664;2023-02-04T12:21:11;35.75;;;21.33;;
61899;SDS011;47853;55.890;37.664;2023-02-04T12:23:36;31.92;;;18.50;;
61899;SDS011;47853;55.890;37.664;2023-02-04T12:26:01;31.08;;;19.13;;
61899;SDS011;47853;55.890;37.664;2023-02-04T12:28:27;32.65;;;19.05;;
61899;SDS011;47853;55.890;37.664;2023-02-04T12:30:53;32.05;;;19.95;;
61899;SDS011;47853;55.890;37.664;2023-02-04T12:33:18;31.80;;;18.55;;
61899;SDS011;47853;55.890;37.664;2023-02-04T12:35:44;30.27;;;16.33;;
61899;SDS011;47853;55.890;37.664;2023-02-04T12:38:10;31.77;;;17.33;;
61899;SDS011;47853;55.890;37.664;2023-02-04T12:40:36;29.35;;;16.88;;
61899;SDS011;47853;55.890;37.664;2023-02-04T12:43:02;31.05;;;16.98;;
61899;SDS011;47853;55.890;37.664;2023-02-04T12:45:28;29.17;;;16.63;;
61899;SDS011;47853;55.890;37.664;2023-02-04T12:47:53;30.10;;;16.90;;
61899;SDS011;47853;55.890;37.664;2023-02-04T12:50:18;32.03;;;17.95;;
61899;SDS011;47853;55.890;37.664;2023-02-04T12:52:44;28.75;;;15.82;;
61899;SDS011;47853;55.890;37.664;2023-02-04T12:55:20;28.75;;;16.45;;
61899;SDS011;47853;55.890;37.664;2023-02-04T12:57:46;26.75;;;16.52;;
61899;SDS011;47853;55.890;37.664;2023-02-04T13:00:12;29.48;;;15.82;;
61899;SDS011;47853;55.890;37.664;2023-02-04T13:02:39;28.83;;;15.98;;
61899;SDS011;47853;55.890;37.664;2023-02-04T13:05:04;30.98;;;17.02;;
61899;SDS011;47853;55.890;37.664;2023-02-04T13:07:30;30.73;;;18.00;;
61899;SDS011;47853;55.890;37.664;2023-02-04T13:09:56;28.30;;;17.63;;
61899;SDS011;47853;55.890;37.664;2023-02-04T13:12:21;29.45;;;15.57;;
61899;SDS011;47853;55.890;37.664;2023-02-04T13:14:47;36.75;;;17.45;;
61899;SDS011;47853;55.890;37.664;2023-02-04T13:17:12;36.80;;;20.42;;
61899;SDS011;47853;55.890;37.664;2023-02-04T13:19:37;29.92;;;18.20;;
61899;SDS011;47853;55.890;37.664;2023-02-04T13:22:03;28.08;;;16.23;;
61899;SDS011;47853;55.890;37.664;2023-02-04T13:24:28;29.70;;;16.48;;
61899;SDS011;47853;55.890;37.664;2023-02-04T13:26:53;26.17;;;15.48;;
61899;SDS011;47853;55.890;37.664;2023-02-04T13:29:19;31.08;;;17.35;;
61899;SDS011;47853;55.890;37.664;2023-02-04T13:31:45;30.58;;;16.42;;
61899;SDS011;47853;55.890;37.664;2023-02-04T13:34:10;28.90;;;15.98;;
61899;SDS011;47853;55.890;37.664;2023-02-04T13:36:38;29.70;;;16.15;;
61899;SDS011;47853;55.890;37.664;2023-02-04T13:39:03;26.40;;;16.15;;
61899;SDS011;47853;55.890;37.664;2023-02-04T13:41:29;28.45;;;16.65;;
61899;SDS011;47853;55.890;37.664;2023-02-04T13:43:54;29.90;;;14.38;;
61899;SDS011;47853;55.890;37.664;2023-02-04T13:46:20;27.83;;;16.17;;
61899;SDS011;47853;55.890;37.664;2023-02-04T13:48:46;25.83;;;16.13;;
61899;SDS011;47853;55.890;37.664;2023-02-04T13:51:11;28.27;;;17.30;;
61899;SDS011;47853;55.890;37.664;2023-02-04T13:53:38;28.38;;;16.85;;
61899;SDS011;47853;55.890;37.664;2023-02-04T13:56:04;30.02;;;17.23;;
61899;SDS011;47853;55.890;37.664;2023-02-04T13:58:29;39.53;;;18.27;;
61899;SDS011;47853;55.890;37.664;2023-02-04T14:00:54;31.05;;;17.10;;
61899;SDS011;47853;55.890;37.664;2023-02-04T14:03:20;31.80;;;16.45;;
61899;SDS011;47853;55.890;37.664;2023-02-04T14:05:45;27.45;;;16.38;;
61899;SDS011;47853;55.890;37.664;2023-02-04T14:08:10;29.67;;;16.83;;
61899;SDS011;47853;55.890;37.664;2023-02-04T14:10:36;27.55;;;16.23;;
61899;SDS011;47853;55.890;37.664;2023-02-04T14:13:01;25.92;;;15.25;;
61899;SDS011;47853;55.890;37.664;2023-02-04T14:15:26;31.38;;;17.08;;
61899;SDS011;47853;55.890;37.664;2023-02-04T14:17:52;23.48;;;14.45;;
61899;SDS011;47853;55.890;37.664;2023-02-04T14:20:17;28.90;;;16.35;;
61899;SDS011;47853;55.890;37.664;2023-02-04T14:22:42;27.10;;;15.75;;
61899;SDS011;47853;55.890;37.664;2023-02-04T14:25:08;34.88;;;19.08;;
61899;SDS011;47853;55.890;37.664;2023-02-04T14:27:33;30.20;;;17.98;;
61899;SDS011;47853;55.890;37.664;2023-02-04T14:29:58;28.88;;;17.95;;
61899;SDS011;47853;55.890;37.664;2023-02-04T14:32:24;35.33;;;20.73;;
61899;SDS011;47853;55.890;37.664;2023-02-04T14:34:49;29.33;;;17.13;;